sensor_id;sensor_type;location;lat;lon;timestamp;pressure;altitude;pressure_sealevel;temperature;humidity
70488;BME280;57976;48.174;16.370;2023-02-28T06:58:59;100377.10;;;1.40;70.24
70488;BME280;57976;48.174;16.370;2023-02-28T07:01:04;100375.40;;;1.42;69.90
70488;BME280;57976;48.174;16.370;2023-02-28T07:03:09;100374.15;;;1.45;69.42
70488;BME280;57976;48.174;16.370;2023-02-28T07:05:14;100374.37;;;1.51;69.49
70488;BME280;57976;48.174;16.370;2023-02-28T07:07:19;100374.61;;;1.50;68.92
70488;BME280;57976;48.174;16.370;2023-02-28T07:09:24;100375.52;;;1.47;68.94
70488;BME280;57976;48.174;16.370;2023-02-28T07:11:32;100375.25;;;1.49;69.29
70488;BME280;57976;48.174;16.370;2023-02-28T07:13:37;100374.83;;;1.57;69.59
70488;BME280;57976;48.174;16.370;2023-02-28T07:15:42;100374.14;;;1.65;69.01
70488;BME280;57976;48.174;16.370;2023-02-28T07:17:47;100373.02;;;1.68;68.75
70488;BME280;57976;48.174;16.370;2023-02-28T07:19:52;100377.17;;;1.73;68.21
70488;BME280;57976;48.174;16.370;2023-02-28T07:21:57;100375.24;;;1.78;68.50
70488;BME280;57976;48.174;16.370;2023-02-28T07:24:02;100376.13;;;1.86;68.30
70488;BME280;57976;48.174;16.370;2023-02-28T07:26:10;100375.50;;;1.94;68.35
70488;BME280;57976;48.174;16.370;2023-02-28T07:28:15;100376.40;;;2.05;68.05
70488;BME280;57976;48.174;16.370;2023-02-28T07:30:20;100378.52;;;2.13;67.67
70488;BME280;57976;48.174;16.370;2023-02-28T07:32:26;100378.96;;;2.23;68.72
70488;BME280;57976;48.174;16.370;2023-02-28T07:34:30;100379.99;;;2.28;68.85
70488;BME280;57976;48.174;16.370;2023-02-28T07:36:35;100382.45;;;2.37;68.32
70488;BME280;57976;48.174;16.370;2023-02-28T07:38:40;100384.03;;;2.50;68.57
70488;BME280;57976;48.174;16.370;2023-02-28T07:40:45;100383.52;;;2.64;67.63
70488;BME280;57976;48.174;16.370;2023-02-28T07:42:50;100388.91;;;2.67;66.44
70488;BME280;57976;48.174;16.370;2023-02-28T07:44:55;100388.83;;;2.72;66.98
70488;BME280;57976;48.174;16.370;2023-02-28T07:47:00;100390.20;;;2.83;66.91
70488;BME280;57976;48.174;16.370;2023-02-28T07:49:05;100396.52;;;2.94;66.25
70488;BME280;57976;48.174;16.370;2023-02-28T07:51:10;100394.58;;;3.02;65.81
70488;BME280;57976;48.174;16.370;2023-02-28T07:53:15;100396.42;;;3.14;66.08
70488;BME280;57976;48.174;16.370;2023-02-28T07:55:20;100396.98;;;3.24;65.14
70488;BME280;57976;48.174;16.370;2023-02-28T07:57:25;100396.64;;;3.30;64.77
70488;BME280;57976;48.174;16.370;2023-02-28T07:59:30;100396.91;;;3.39;64.51
70488;BME280;57976;48.174;16.370;2023-02-28T08:01:36;100400.04;;;3.39;63.45
70488;BME280;57976;48.174;16.370;2023-02-28T08:03:41;100401.11;;;3.43;64.19
70488;BME280;57976;48.174;16.370;2023-02-28T08:05:46;100403.64;;;3.50;63.91
70488;BME280;57976;48.174;16.370;2023-02-28T08:07:51;100404.94;;;3.62;63.71
70488;BME280;57976;48.174;16.370;2023-02-28T08:09:56;100405.06;;;3.68;62.96
70488;BME280;57976;48.174;16.370;2023-02-28T08:12:04;100406.23;;;3.73;62.84
70488;BME280;57976;48.174;16.370;2023-02-28T08:14:12;100402.65;;;3.80;62.52
70488;BME280;57976;48.174;16.370;2023-02-28T08:16:20;100402.59;;;3.83;61.69
70488;BME280;57976;48.174;16.370;2023-02-28T08:18:25;100402.63;;;3.81;61.31
70488;BME280;57976;48.174;16.370;2023-02-28T08:20:30;100401.42;;;3.72;60.69
70488;BME280;57976;48.174;16.370;2023-02-28T08:22:35;100403.86;;;3.68;61.30
70488;BME280;57976;48.174;16.370;2023-02-28T08:24:42;100400.48;;;3.71;61.25
70488;BME280;57976;48.174;16.370;2023-02-28T08:26:47;100396.71;;;3.78;60.96
70488;BME280;57976;48.174;16.370;2023-02-28T08:28:52;100401.63;;;3.82;60.91
70488;BME280;57976;48.174;16.370;2023-02-28T08:30:59;100401.40;;;3.89;60.95
70488;BME280;57976;48.174;16.370;2023-02-28T08:33:04;100403.06;;;3.90;59.88
70488;BME280;57976;48.174;16.370;2023-02-28T08:35:10;100402.17;;;3.82;60.11
70488;BME280;57976;48.174;16.370;2023-02-28T08:37:15;100406.09;;;3.77;60.53
70488;BME280;57976;48.174;16.370;2023-02-28T08:39:20;100405.86;;;3.78;60.28
70488;BME280;57976;48.174;16.370;2023-02-28T08:41:25;100405.73;;;3.69;60.29
70488;BME280;57976;48.174;16.370;2023-02-28T08:43:31;100403.33;;;3.64;60.95
70488;BME280;57976;48.174;16.370;2023-02-28T08:45:35;100410.30;;;3.67;61.23
70488;BME280;57976;48.174;16.370;2023-02-28T08:47:40;100407.61;;;3.78;61.56
70488;BME280;57976;48.174;16.370;2023-02-28T08:49:45;100405.69;;;3.88;60.65
70488;BME280;57976;48.174;16.370;2023-02-28T08:51:50;100407.21;;;3.89;60.59
70488;BME280;57976;48.174;16.370;2023-02-28T08:53:55;100406.61;;;3.94;60.73
70488;BME280;57976;48.174;16.370;2023-02-28T08:56:04;100406.75;;;4.02;60.76
70488;BME280;57976;48.174;16.370;2023-02-28T08:58:09;100409.79;;;4.09;60.08
70488;BME280;57976;48.174;16.370;2023-02-28T09:00:16;100410.62;;;4.12;60.18
70488;BME280;57976;48.174;16.370;2023-02-28T09:02:20;100414.02;;;4.15;59.68
70488;BME280;57976;48.174;16.370;2023-02-28T09:04:25;100412.23;;;4.11;59.68
70488;BME280;57976;48.174;16.370;2023-02-28T09:06:30;100408.80;;;4.05;59.77
70488;BME280;57976;48.174;16.370;2023-02-28T09:08:36;100410.79;;;3.98;60.00
70488;BME280;57976;48.174;16.370;2023-02-28T09:10:41;100407.91;;;4.01;60.41
70488;BME280;57976;48.174;16.370;2023-02-28T09:12:46;100409.20;;;4.10;60.49
70488;BME280;57976;48.174;16.370;2023-02-28T09:14:52;100412.43;;;4.21;60.45
70488;BME280;57976;48.174;16.370;2023-02-28T09:16:56;100410.86;;;4.33;60.02
70488;BME280;57976;48.174;16.370;2023-02-28T09:19:02;100410.96;;;4.41;60.12
70488;BME280;57976;48.174;16.370;2023-02-28T09:21:11;100407.07;;;4.48;59.72
70488;BME280;57976;48.174;16.370;2023-02-28T09:23:16;100407.66;;;4.53;59.55
70488;BME280;57976;48.174;16.370;2023-02-28T09:25:21;100412.14;;;4.58;59.72
70488;BME280;57976;48.174;16.370;2023-02-28T09:27:26;100406.91;;;4.63;59.13
70488;BME280;57976;48.174;16.370;2023-02-28T09:29:31;100404.88;;;4.58;58.54
70488;BME280;57976;48.174;16.370;2023-02-28T09:31:35;100409.30;;;4.56;59.11
70488;BME280;57976;48.174;16.370;2023-02-28T09:33:40;100410.37;;;4.60;59.57
70488;BME280;57976;48.174;16.370;2023-02-28T09:35:45;100408.43;;;4.64;59.15
70488;BME280;57976;48.174;16.370;2023-02-28T09:37:51;100415.58;;;4.69;59.09
70488;BME280;57976;48.174;16.370;2023-02-28T09:39:56;100415.27;;;4.74;58.90
70488;BME280;57976;48.174;16.370;2023-02-28T09:42:03;100416.21;;;4.75;58.54
70488;BME280;57976;48.174;16.370;2023-02-28T09:44:09;100414.86;;;4.74;58.58
70488;BME280;57976;48.174;16.370;2023-02-28T09:46:28;100416.58;;;4.71;58.24
70488;BME280;57976;48.174;16.370;2023-02-28T09:48:37;100418.77;;;4.66;58.42
70488;BME280;57976;48.174;16.370;2023-02-28T09:50:48;100424.55;;;4.67;58.77
70488;BME280;57976;48.174;16.370;2023-02-28T09:52:55;100424.00;;;4.71;58.77
70488;BME280;57976;48.174;16.370;2023-02-28T09:55:15;100422.93;;;4.69;58.51
70488;BME280;57976;48.174;16.370;2023-02-28T09:57:32;100425.30;;;4.68;58.86
70488;BME280;57976;48.174;16.370;2023-02-28T09:59:48;100428.64;;;4.72;59.15
70488;BME280;57976;48.174;16.370;2023-02-28T10:02:00;100422.31;;;4.78;59.06
70488;BME280;57976;48.174;16.370;2023-02-28T10:04:16;100425.51;;;4.79;58.90
70488;BME280;57976;48.174;16.370;2023-02-28T10:06:22;100427.20;;;4.72;58.50
70488;BME280;57976;48.174;16.370;2023-02-28T10:08:34;100427.42;;;4.60;60.60
70488;BME280;57976;48.174;16.370;2023-02-28T10:10:43;100425.19;;;4.54;59.72
70488;BME280;57976;48.174;16.370;2023-02-28T10:12:50;100423.86;;;4.45;59.59
70488;BME280;57976;48.174;16.370;2023-02-28T10:14:59;100421.56;;;4.37;59.92
70488;BME280;57976;48.174;16.370;2023-02-28T10:17:08;100420.75;;;4.32;60.24
70488;BME280;57976;48.174;16.370;2023-02-28T10:19:20;100417.67;;;4.37;60.21
70488;BME280;57976;48.174;16.370;2023-02-28T10:21:30;100420.52;;;4.41;60.15
70488;BME280;57976;48.174;16.370;2023-02-28T10:23:37;100419.13;;;4.46;60.64
70488;BME280;57976;48.174;16.370;2023-02-28T10:25:44;100416.67;;;4.58;59.96
70488;BME280;57976;48.174;16.370;2023-02-28T10:27:51;100413.05;;;4.60;59.81
70488;BME280;57976;48.174;16.370;2023-02-28T10:29:59;100410.04;;;4.64;59.72
70488;BME280;57976;48.174;16.370;2023-02-28T10:32:05;100409.50;;;4.75;60.15
70488;BME280;57976;48.174;16.370;2023-02-28T10:34:13;100405.06;;;4.89;59.93
70488;BME280;57976;48.174;16.370;2023-02-28T10:36:19;100401.98;;;5.01;59.82
70488;BME280;57976;48.174;16.370;2023-02-28T10:38:26;100395.65;;;5.11;59.45
70488;BME280;57976;48.174;16.370;2023-02-28T10:40:34;100395.41;;;5.19;59.07
70488;BME280;57976;48.174;16.370;2023-02-28T10:42:40;100390.13;;;5.29;59.00
70488;BME280;57976;48.174;16.370;2023-02-28T10:44:45;100388.01;;;5.39;58.26
70488;BME280;57976;48.174;16.370;2023-02-28T10:46:52;100386.02;;;5.39;57.20
70488;BME280;57976;48.174;16.370;2023-02-28T10:49:03;100380.19;;;5.39;57.71
70488;BME280;57976;48.174;16.370;2023-02-28T10:51:11;100381.35;;;5.48;57.66
70488;BME280;57976;48.174;16.370;2023-02-28T10:53:30;100383.73;;;5.54;56.83
70488;BME280;57976;48.174;16.370;2023-02-28T10:55:38;100380.85;;;5.51;56.77
70488;BME280;57976;48.174;16.370;2023-02-28T10:57:43;100381.21;;;5.55;57.29
